Incline Creek, Nevada Weather observations

Data are for observation ending at time listed.
 Day   Time    Ave.   Ave.  Ave.  Vector   Max.   Stn.    Total    Solar   Ave.   Snow 
  of    of     Air    Rel.  Wind   Wind    Wind   Baro.  Precip.   Rad.    Soil   Depth
Year   Day     Temp.  Hum.  Speed  Dir.    Gust   Pres.                    Temp.       
2014   (PST)    F      %     mph   deg.    mph     mb.     in.     W/m2     F      in. 
---------------------------------------------------------------------------------------  
 239   19:00   61.1    39    2.6    20      4.2   999.0    0.00       0    999.0   83.9
 239   19:10   59.8    42    2.1    12      4.6   999.0    0.00       0    999.0   83.9
 239   19:20   59.2    45    2.1    27      4.1   999.0    0.00       0    999.0    0.0
 239   19:30   58.4    47    1.5    21      3.1   999.0    0.00       0    999.0   83.9
 239   19:40   58.8    49    1.6   351      3.1   999.0    0.00       0    999.0   83.9
 239   19:50   57.9    50    1.6    22      2.2   999.0    0.00       0    999.0   83.9
 239   20:00   57.3    53    1.2    27      2.5   999.0    0.00       0    999.0   83.9
 239   20:10   56.8    55    1.7    26      3.1   999.0    0.00       0    999.0   83.9
 239   20:20   56.3    58    1.9    19      3.1   999.0    0.00       0    999.0    0.0
 239   20:30   56.1    59    2.1    29      3.5   999.0    0.00       0    999.0   83.9
 239   20:40   55.7    61    2.0    21      3.3   999.0    0.00       0    999.0   83.9
 239   20:50   55.6    62    2.2    19      3.2   999.0    0.00       0    999.0   83.9
 239   21:00   55.4    62    1.9    22      2.8   999.0    0.00       0    999.0   83.9
 239   21:10   55.0    63    1.7    22      2.6   999.0    0.00       0    999.0   83.9
 239   21:20   54.7    63    2.2    20      3.2   999.0    0.00       0    999.0   83.9
 239   21:30   54.4    64    1.8    20      2.9   999.0    0.00       0    999.0   83.9
 239   21:40   54.2    63    2.1    11      3.3   999.0    0.00       0    999.0   83.9
 239   21:50   53.9    63    2.5    16      3.7   999.0    0.00       0    999.0   83.9
 239   22:00   53.6    62    1.8    20      2.6   999.0    0.00       0    999.0   83.9
 239   22:10   53.1    62    1.6    24      2.8   999.0    0.00       0    999.0   83.9
 239   22:20   52.7    60    1.7    24      2.9   999.0    0.00       0    999.0   83.9
 239   22:30   52.5    60    2.1    21      3.0   999.0    0.00       0    999.0   83.9
 239   22:40   52.1    60    1.9    22      3.0   999.0    0.00       0    999.0   83.9
 239   22:50   51.8    60    2.1    19      3.3   999.0    0.00       0    999.0    0.0
 239   23:00   51.4    60    1.6    29      2.0   999.0    0.00       0    999.0   83.9
 239   23:10   51.1    61    1.6    22      2.6   999.0    0.00       0    999.0    0.0
 239   23:20   50.8    62    1.8    28      2.5   999.0    0.00       0    999.0    0.0
 239   23:30   50.9    62    1.9    23      2.8   999.0    0.00       0    999.0   83.9
 239   23:40   50.8    62    1.8    22      2.9   999.0    0.00       0    999.0    0.0
 239   23:50   50.6    62    1.8    21      3.6   999.0    0.00       0    999.0   83.9
 240    0:00   50.5    62    2.1    15      3.3   999.0    0.00       0    999.0   83.9
 240    0:10   50.3    62    2.7    19      3.9   999.0    0.00       0    999.0    0.0
 240    0:20   50.3    63    2.0    24      3.4   999.0    0.00       0    999.0    0.0
 240    0:30   49.9    63    1.7    28      2.1   999.0    0.00       0    999.0    0.0
 240    0:40   49.6    64    1.8    20      2.4   999.0    0.00       0    999.0   83.9
 240    0:50   49.7    64    1.7    29      2.3   999.0    0.00       0    999.0   83.9
 240    1:00   49.5    64    1.5    27      2.1   999.0    0.00       0    999.0    0.0
 240    1:10   49.6    64    2.1    25      3.3   999.0    0.00       0    999.0   83.9
 240    1:20   49.4    65    2.1    29      3.2   999.0    0.00       0    999.0    0.0
 240    1:30   49.1    67    2.0    29      3.0   999.0    0.00       0    999.0   83.9
 240    1:40   49.0    67    2.1    19      3.1   999.0    0.00       0    999.0    0.0
 240    1:50   49.1    68    2.6    16      4.0   999.0    0.00       0    999.0   83.9
 240    2:00   48.9    68    1.9    30      2.7   999.0    0.00       0    999.0    0.0
 240    2:10   48.6    68    1.8    32      2.8   999.0    0.00       0    999.0    0.0
 240    2:20   48.6    69    1.8    30      2.7   999.0    0.00       0    999.0    0.0
 240    2:30   48.6    70    1.9    33      2.8   999.0    0.00       0    999.0    0.0
 240    2:40   48.5    69    1.6    33      2.2   999.0    0.00       0    999.0    0.0
 240    2:50   48.3    70    1.8    33      2.2   999.0    0.00       0    999.0   83.9
 240    3:00   48.2    70    1.7    32      2.2   999.0    0.00       0    999.0   83.9
 240    3:10   48.0    70    1.7    34      2.1   999.0    0.00       0    999.0    0.0
 240    3:20   47.9    71    1.8    29      2.2   999.0    0.00       0    999.0    0.0
 240    3:30   47.8    71    1.6    26      2.2   999.0    0.00       0    999.0   83.9
 240    3:40   47.6    71    1.4    10      2.0   999.0    0.00       0    999.0    0.0
 240    3:50   47.6    73    1.9    28      2.6   999.0    0.00       0    999.0   83.9
 240    4:00   47.5    74    1.9    30      2.5   999.0    0.00       0    999.0   83.9
 240    4:10   47.5    74    1.7    27      2.3   999.0    0.00       0    999.0    0.0
 240    4:20   47.5    73    1.9    21      2.6   999.0    0.00       0    999.0   83.9
 240    4:30   47.4    72    2.1    19      3.1   999.0    0.00       0    999.0   83.9
 240    4:40   47.4    72    2.0    22      2.9   999.0    0.00       0    999.0   83.9
 240    4:50   47.4    72    1.9    22      2.9   999.0    0.00       0    999.0   83.9
 240    5:00   47.2    72    1.9    22      3.1   999.0    0.00       0    999.0   83.9
 240    5:10   47.4    72    2.4    26      3.6   999.0    0.00       2    999.0    0.0
 240    5:20   47.3    72    2.3    31      4.0   999.0    0.00       5    999.0    0.0
 240    5:30   47.2    71    2.4    28      4.0   999.0    0.00       8    999.0    0.0
 240    5:40   47.0    70    1.9    36      2.5   999.0    0.00      10    999.0   83.9
 240    5:50   46.8    71    1.5    26      1.9   999.0    0.00      13    999.0    0.0
 240    6:00   46.9    71    1.7    25      2.5   999.0    0.00      15    999.0    0.0
 240    6:10   47.0    72    1.8    25      3.0   999.0    0.00      17    999.0   83.9
 240    6:20   47.1    72    1.7    27      2.4   999.0    0.00      18    999.0   83.9
 240    6:30   47.2    74    1.4    28      2.1   999.0    0.00      20    999.0   83.9
 240    6:40   47.6    75    1.9    20      2.5   999.0    0.00      92    999.0   83.9
 240    6:50   49.2    72    1.6    28      2.5   999.0    0.00     267    999.0   83.9
 240    7:00   51.3    70    1.7    26      2.4   999.0    0.00     302    999.0   83.9
 240    7:10   53.7    66    1.2    19      1.7   999.0    0.00     336    999.0   83.9
 240    7:20   55.7    63    1.1    27      1.6   999.0    0.00     370    999.0    0.0
 240    7:30   58.6    59    0.7    31      2.0   999.0    0.00     403    999.0   83.9
 240    7:40   59.9    59    1.4    62      3.4   999.0    0.00     436    999.0   83.9
 240    7:50   62.0    59    2.5   141      6.4   999.0    0.00     467    999.0   83.9
 240    8:00   62.2    62    4.1   149      7.2   999.0    0.00     498    999.0   83.9
 240    8:10   62.4    63    4.5   159      8.6   999.0    0.00     528    999.0   83.9
 240    8:20   62.6    64    4.4   155      7.2   999.0    0.00     558    999.0   83.9
 240    8:30   63.0    62    3.7   150      6.0   999.0    0.00     589    999.0   83.9
 240    8:40   63.8    61    4.1   164      6.7   999.0    0.00     617    999.0    0.0
 240    8:50   64.7    60    3.9   162      6.6   999.0    0.00     645    999.0   83.9
 240    9:00   65.4    58    3.9   149      6.5   999.0    0.00     672    999.0    0.0
 240    9:10   66.1    57    4.3   168      6.4   999.0    0.00     697    999.0    0.0
 240    9:20   66.9    55    4.9   157      9.7   999.0    0.00     723    999.0    0.0
 240    9:30   67.0    54    4.9   157      9.2   999.0    0.00     745    999.0   83.9
 240    9:40   67.6    50    4.7   154      9.2   999.0    0.00     768    999.0    0.0
 240    9:50   68.5    48    4.9   156      9.9   999.0    0.00     789    999.0   83.9
 240   10:00   68.8    46    5.3   158      8.7   999.0    0.00     807    999.0    0.0
 240   10:10   69.1    44    5.3   154     10.6   999.0    0.00     824    999.0   83.9
 240   10:20   69.1    45    5.5   159      9.1   999.0    0.00     840    999.0   83.9
 240   10:30   69.9    45    5.1   155      9.6   999.0    0.00     852    999.0    0.0
 240   10:40   70.0    45    6.0   153     11.5   999.0    0.00     864    999.0    0.0
 240   10:50   70.6    42    5.6   160     10.5   999.0    0.00     880    999.0   83.9
 240   11:00   70.8    39    4.9   159      9.3   999.0    0.00     890    999.0    0.0
 240   11:10   71.7    36    5.3   163      9.4   999.0    0.00     900    999.0   83.9
 240   11:20   72.2    35    5.4   154     10.7   999.0    0.00     908    999.0    0.0
 240   11:30   72.6    32    5.4   152      8.9   999.0    0.00     916    999.0    0.0
 240   11:40   72.7    31    4.7   148      8.4   999.0    0.00     914    999.0    0.0
 240   11:50   74.1    28    3.8   148      8.5   999.0    0.00     913    999.0    0.0
 240   12:00   74.5    26    4.7   150      9.8   999.0    0.00     911    999.0    0.0
 240   12:10   74.9    22    3.7   142      9.5   999.0    0.00     908    999.0    0.0
 240   12:20   74.9    22    4.7   153     10.7   999.0    0.00     905    999.0    0.0
 240   12:30   75.7    22    3.6   155      8.9   999.0    0.00     898    999.0    0.0
 240   12:40   76.4    23    3.7   145      7.9   999.0    0.00     893    999.0    0.0
 240   12:50   76.2    22    4.7   149     10.5   999.0    0.00     883    999.0    0.0
 240   13:00   76.3    19    4.5   148      9.7   999.0    0.00     873    999.0    0.0
 240   13:10   76.5    18    4.7   149      9.1   999.0    0.00     863    999.0    0.0
 240   13:20   77.3    16    3.4   174      9.6   999.0    0.00     851    999.0    0.0
 240   13:30   77.6    16    4.6   139     10.1   999.0    0.00     835    999.0    0.0
 240   13:40   77.2    17    4.7   151     10.6   999.0    0.00     817    999.0    0.0
 240   13:50   76.9    17    5.7   153     11.2   999.0    0.00     797    999.0   83.9
 240   14:00   76.5    19    5.4   146     11.1   999.0    0.00     772    999.0    0.0
 240   14:10   76.6    21    6.2   151     12.2   999.0    0.00     749    999.0    0.0
 240   14:20   76.0    23    6.0   146     12.1   999.0    0.00     723    999.0   83.9
 240   14:30   76.2    25    5.4   149     12.9   999.0    0.00     703    999.0    0.0
 240   14:40   76.3    26    5.2   148     11.0   999.0    0.00     689    999.0   83.9
 240   14:50   76.2    25    5.9   148     11.3   999.0    0.00     666    999.0   83.9
 240   15:00   75.8    25    6.1   153     11.7   999.0    0.00     594    999.0    0.0
 240   15:10   76.3    24    4.9   151     11.7   999.0    0.00     606    999.0    0.0
 240   15:20   76.2    25    5.6   140     11.7   999.0    0.00     561    999.0    0.0
 240   15:30   75.5    25    6.3   149     14.0   999.0    0.00     531    999.0    0.0
 240   15:40   76.1    25    4.1   143     11.1   999.0    0.00     501    999.0   83.9
 240   15:50   75.6    25    6.2   150     11.1   999.0    0.00     469    999.0   83.9
 240   16:00   75.3    26    4.4   148     11.8   999.0    0.00     437    999.0    0.0
 240   16:10   75.0    27    4.6   152     10.2   999.0    0.00     404    999.0    0.0
 240   16:20   75.2    27    4.6   144      8.6   999.0    0.00     369    999.0    0.0
 240   16:30   74.3    30    3.8   149      8.5   999.0    0.00     274    999.0    0.0
 240   16:40   73.3    32    3.3   153      8.2   999.0    0.00      39    999.0    0.0
 240   16:50   72.9    31    3.4   160      8.8   999.0    0.00      31    999.0    0.0
 240   17:00   72.6    32    3.8   141      8.2   999.0    0.00      27    999.0    0.0
 240   17:10   72.0    34    3.8   143      8.2   999.0    0.00      25    999.0    0.0
 240   17:20   71.5    38    4.0   149      9.2   999.0    0.00      24    999.0   83.9
 240   17:30   70.8    40    3.5   149      8.2   999.0    0.00      21    999.0   83.9
 240   17:40   70.4    44    4.3   156      7.2   999.0    0.00      18    999.0   83.9
 240   17:50   69.9    48    3.0   172      7.1   999.0    0.00      16    999.0    0.0
 240   18:00   69.7    47    3.4   164      7.6   999.0    0.00      13    999.0   83.9
 240   18:10   69.2    48    2.5   202      6.1   999.0    0.00      10    999.0   83.9
 240   18:20   68.0    49    0.8    16      2.1   999.0    0.00       6    999.0   83.9
 240   18:30   66.7    51    1.0   345      1.7   999.0    0.00       2    999.0   83.9
 240   18:40   65.5    51    1.4   359      2.5   999.0    0.00       0    999.0   83.9
 240   18:50   64.5    50    2.0     4      3.4   999.0    0.00       0    999.0   83.9

Return to Incline Creek graphs page.


Western Regional Climate Center,wrcc@dri.edu